Time;durP1;ratioP1;P1;durP2;ratioP2;P2;SDS_P1;SDS_P2;PMS_P1;PMS_P2;Temp;Humidity;BMP_temperature;BMP_pressure;BME280_temperature;BME280_humidity;BME280_pressure;Samples;Min_cycle;Max_cycle;Signal;HPM_P1;HPM_P2
2023/11/26 00:02:24;;;;;;;2.10;0.77;;;5.90;81.20;;;;;;5057634;28;20032;-66
2023/11/26 00:04:49;;;;;;;4.93;1.20;;;5.90;81.20;;;;;;5054355;28;20489;-66
2023/11/26 00:07:16;;;;;;;1.50;0.95;;;5.90;81.20;;;;;;5061120;28;20372;-66
2023/11/26 00:09:42;;;;;;;1.17;0.65;;;5.80;81.10;;;;;;5056797;28;20082;-66
2023/11/26 00:12:07;;;;;;;0.90;0.50;;;5.80;81.00;;;;;;5039165;28;20501;-66
2023/11/26 00:14:39;;;;;;;0.80;0.63;;;5.70;80.90;;;;;;5055431;28;20507;-64
2023/11/26 00:17:05;;;;;;;1.75;1.23;;;5.70;80.90;;;;;;5048126;28;20049;-64
2023/11/26 00:19:34;;;;;;;1.13;0.75;;;5.60;80.90;;;;;;5051959;28;20047;-64
2023/11/26 00:22:00;;;;;;;1.38;0.90;;;5.60;80.90;;;;;;5057660;28;20029;-64
2023/11/26 00:24:26;;;;;;;2.35;0.88;;;5.60;81.00;;;;;;5048000;28;20178;-64
2023/11/26 00:26:52;;;;;;;3.40;1.02;;;5.50;80.90;;;;;;5056404;28;20025;-64
2023/11/26 00:29:18;;;;;;;2.20;1.05;;;5.50;80.70;;;;;;5048826;28;20037;-64
2023/11/26 00:31:44;;;;;;;2.15;1.02;;;5.50;80.80;;;;;;5057586;28;20033;-64
2023/11/26 00:34:09;;;;;;;1.63;1.20;;;5.40;80.80;;;;;;5056164;28;20044;-64
2023/11/26 00:36:35;;;;;;;3.03;1.73;;;5.40;80.80;;;;;;5059899;28;20036;-64
2023/11/26 00:39:02;;;;;;;1.50;1.23;;;5.40;80.70;;;;;;5044645;28;20120;-64
2023/11/26 00:41:28;;;;;;;0.95;0.93;;;5.40;80.80;;;;;;5059404;28;20040;-64
2023/11/26 00:43:53;;;;;;;6.68;1.42;;;5.40;80.70;;;;;;5054456;28;20090;-64
2023/11/26 00:46:19;;;;;;;2.28;1.30;;;5.30;80.70;;;;;;5063790;28;20024;-64
2023/11/26 00:48:45;;;;;;;1.33;0.75;;;5.40;80.80;;;;;;5060706;28;20475;-64
2023/11/26 00:51:21;;;;;;;1.33;0.65;;;5.30;80.80;;;;;;5062849;28;20033;-66
2023/11/26 00:53:49;;;;;;;4.10;1.27;;;5.30;80.70;;;;;;5052542;28;20112;-66
2023/11/26 00:56:15;;;;;;;1.10;1.00;;;5.30;80.70;;;;;;5061801;28;20032;-66
2023/11/26 00:58:40;;;;;;;0.88;0.70;;;5.30;80.70;;;;;;5056837;28;20044;-66
2023/11/26 01:01:07;;;;;;;1.95;0.88;;;5.30;80.60;;;;;;5063200;28;20025;-66
2023/11/26 01:03:32;;;;;;;2.70;0.80;;;5.20;80.50;;;;;;5059125;28;20033;-66
2023/11/26 01:05:58;;;;;;;1.95;1.00;;;5.20;80.60;;;;;;5058631;28;20031;-66
2023/11/26 01:08:24;;;;;;;1.63;0.75;;;5.20;80.50;;;;;;5063483;28;20043;-66
2023/11/26 01:10:51;;;;;;;3.17;1.35;;;5.20;80.40;;;;;;5057730;28;20075;-66
2023/11/26 01:13:16;;;;;;;1.67;0.80;;;5.10;80.40;;;;;;5054599;28;20112;-66
2023/11/26 01:15:42;;;;;;;2.13;1.10;;;5.10;80.50;;;;;;5055591;28;20120;-66
2023/11/26 01:18:08;;;;;;;1.92;1.45;;;5.10;81.20;;;;;;5053124;28;20049;-66
2023/11/26 01:20:33;;;;;;;2.50;1.40;;;5.00;80.70;;;;;;5061544;28;20028;-66
2023/11/26 01:22:59;;;;;;;2.38;1.10;;;5.00;81.00;;;;;;5051223;28;20108;-66
2023/11/26 01:25:25;;;;;;;2.65;1.33;;;5.00;81.20;;;;;;5050890;28;20541;-66
2023/11/26 01:27:50;;;;;;;1.92;1.05;;;5.00;81.20;;;;;;5054414;28;20128;-66
2023/11/26 01:30:16;;;;;;;1.20;0.93;;;5.00;81.30;;;;;;5058929;28;20058;-66
2023/11/26 01:32:42;;;;;;;2.22;0.90;;;5.00;81.20;;;;;;5059028;28;20369;-66
2023/11/26 01:35:11;;;;;;;1.92;1.20;;;5.00;81.10;;;;;;5056915;28;20482;-66
2023/11/26 01:37:36;;;;;;;4.05;1.50;;;5.10;81.30;;;;;;5061438;28;20037;-66
2023/11/26 01:40:05;;;;;;;1.50;0.88;;;5.10;81.30;;;;;;5051187;28;20029;-66
2023/11/26 01:42:31;;;;;;;3.15;1.98;;;5.10;81.40;;;;;;5061792;28;20434;-66
2023/11/26 01:44:56;;;;;;;3.45;1.10;;;5.10;81.30;;;;;;5056411;28;20029;-66
2023/11/26 01:47:22;;;;;;;1.40;1.20;;;5.00;81.40;;;;;;5055616;28;20051;-64
2023/11/26 01:49:49;;;;;;;2.53;1.33;;;5.00;81.40;;;;;;5054511;28;20025;-64
2023/11/26 01:52:15;;;;;;;1.50;1.33;;;5.00;81.40;;;;;;5055433;28;20045;-64
2023/11/26 01:54:42;;;;;;;3.00;1.13;;;5.00;81.40;;;;;;5061967;28;20075;-64
2023/11/26 01:57:10;;;;;;;1.92;1.27;;;5.00;81.40;;;;;;5055667;28;20033;-64
2023/11/26 01:59:36;;;;;;;2.20;1.20;;;5.00;81.40;;;;;;5055209;28;20025;-64
2023/11/26 02:02:02;;;;;;;0.77;0.77;;;5.00;81.50;;;;;;5055690;28;20351;-64
2023/11/26 02:04:28;;;;;;;2.85;1.77;;;5.00;81.40;;;;;;5059551;28;20040;-66
2023/11/26 02:06:54;;;;;;;4.43;1.58;;;5.00;81.40;;;;;;5041397;28;20029;-66
2023/11/26 02:09:19;;;;;;;4.78;1.67;;;5.00;81.40;;;;;;5052355;28;20025;-64
2023/11/26 02:11:46;;;;;;;1.35;0.85;;;5.00;81.40;;;;;;5059362;28;20032;-64
2023/11/26 02:14:12;;;;;;;1.13;1.02;;;5.00;81.40;;;;;;5060173;28;20043;-64
2023/11/26 02:16:38;;;;;;;1.80;1.13;;;5.00;81.20;;;;;;5062016;28;20422;-64
2023/11/26 02:19:21;;;;;;;5.88;1.80;;;5.00;81.20;;;;;;5059478;28;20098;-64
2023/11/26 02:21:47;;;;;;;3.85;1.27;;;5.00;81.20;;;;;;5065265;28;20523;-64
2023/11/26 02:24:15;;;;;;;4.47;1.20;;;5.00;81.30;;;;;;5063952;28;20025;-64
2023/11/26 02:26:41;;;;;;;1.90;1.10;;;5.00;81.30;;;;;;5053692;28;20578;-63
2023/11/26 02:29:08;;;;;;;3.35;1.38;;;5.00;81.40;;;;;;5053897;28;20040;-64
2023/11/26 02:31:34;;;;;;;4.45;1.25;;;5.00;81.40;;;;;;5064556;28;20041;-66
2023/11/26 02:33:59;;;;;;;4.90;1.52;;;5.00;81.40;;;;;;5056039;28;20024;-66
2023/11/26 02:36:25;;;;;;;9.27;1.33;;;5.00;81.40;;;;;;5057882;28;20039;-66
2023/11/26 02:38:52;;;;;;;2.92;1.17;;;4.90;81.50;;;;;;5055800;28;20403;-66
2023/11/26 02:41:19;;;;;;;5.13;1.40;;;4.90;81.60;;;;;;5060746;28;20037;-66
2023/11/26 02:43:44;;;;;;;3.83;1.45;;;4.90;81.70;;;;;;5056046;28;20444;-67
2023/11/26 02:46:10;;;;;;;4.28;1.38;;;4.90;81.60;;;;;;5062804;28;20040;-66
2023/11/26 02:48:36;;;;;;;3.97;1.27;;;4.90;81.60;;;;;;5050198;28;20056;-66
2023/11/26 02:51:02;;;;;;;1.33;0.93;;;4.80;81.60;;;;;;5054520;28;20020;-64
2023/11/26 02:53:28;;;;;;;3.95;1.83;;;4.90;81.60;;;;;;5054487;28;20060;-66
2023/11/26 02:55:54;;;;;;;2.15;1.25;;;4.90;81.50;;;;;;5053277;28;20025;-66
2023/11/26 02:58:20;;;;;;;1.63;1.08;;;4.80;81.40;;;;;;5055229;28;20040;-66
2023/11/26 03:00:47;;;;;;;2.58;1.48;;;4.80;81.40;;;;;;5052104;28;20036;-66
2023/11/26 03:03:13;;;;;;;2.65;1.60;;;4.80;81.50;;;;;;5055113;28;20431;-64
2023/11/26 03:05:39;;;;;;;2.63;1.73;;;4.80;81.50;;;;;;5059206;28;20028;-66
2023/11/26 03:08:20;;;;;;;2.50;1.17;;;4.80;81.50;;;;;;5053264;28;20025;-64
2023/11/26 03:13:33;;;;;;;4.50;1.45;;;4.70;82.00;;;;;;5064251;28;20560;-64
2023/11/26 03:15:59;;;;;;;1.13;1.02;;;4.70;81.40;;;;;;5056041;28;20037;-63
2023/11/26 03:18:25;;;;;;;3.35;1.00;;;4.60;81.50;;;;;;5057508;28;20033;-64
2023/11/26 03:20:55;;;;;;;1.77;1.35;;;4.50;81.50;;;;;;5053131;28;20545;-64
2023/11/26 03:23:24;;;;;;;2.15;1.50;;;4.50;81.50;;;;;;5059819;28;20024;-64
2023/11/26 03:25:51;;;;;;;2.53;1.58;;;4.50;81.50;;;;;;5051705;28;20025;-63
2023/11/26 03:28:17;;;;;;;1.48;1.10;;;4.50;81.50;;;;;;5062444;28;20116;-64
2023/11/26 03:30:43;;;;;;;5.85;1.02;;;4.50;81.50;;;;;;5057017;28;20033;-64
2023/11/26 03:33:14;;;;;;;1.45;0.90;;;4.50;81.50;;;;;;5058872;28;20074;-64
2023/11/26 03:35:40;;;;;;;2.40;1.45;;;4.50;81.50;;;;;;5055768;28;20029;-64
2023/11/26 03:38:06;;;;;;;2.35;0.95;;;4.50;81.50;;;;;;5055871;28;20033;-64
2023/11/26 03:40:32;;;;;;;3.53;1.23;;;4.50;81.50;;;;;;5058588;28;20131;-64
2023/11/26 03:42:57;;;;;;;4.30;1.42;;;4.50;81.50;;;;;;5056759;28;20403;-63
2023/11/26 03:45:23;;;;;;;1.42;1.33;;;4.50;81.50;;;;;;5057395;28;20066;-64
2023/11/26 03:47:49;;;;;;;2.47;1.10;;;4.50;81.50;;;;;;5056841;28;20036;-64
2023/11/26 03:50:14;;;;;;;4.30;0.93;;;4.50;81.50;;;;;;5055243;28;20033;-63
2023/11/26 03:52:40;;;;;;;4.60;1.38;;;4.50;81.50;;;;;;5058161;28;20037;-64
2023/11/26 03:55:08;;;;;;;0.85;0.82;;;4.50;81.50;;;;;;5054045;28;20065;-63
2023/11/26 03:57:35;;;;;;;2.22;1.73;;;4.50;81.60;;;;;;5054695;28;20120;-64
2023/11/26 04:00:01;;;;;;;1.27;1.00;;;4.50;81.60;;;;;;5054176;28;20033;-64
2023/11/26 04:02:27;;;;;;;3.08;1.48;;;4.50;81.60;;;;;;5059796;28;20214;-64
2023/11/26 04:04:53;;;;;;;4.00;1.88;;;4.50;81.60;;;;;;5054349;28;20380;-63
2023/11/26 04:07:20;;;;;;;4.97;1.25;;;4.50;81.50;;;;;;5054945;28;20071;-64
2023/11/26 04:09:47;;;;;;;2.10;1.00;;;4.50;81.60;;;;;;5051577;28;20204;-64
2023/11/26 04:12:13;;;;;;;1.20;1.05;;;4.50;81.60;;;;;;5052949;28;20028;-64
2023/11/26 04:14:55;;;;;;;0.90;0.85;;;4.50;81.60;;;;;;5056251;28;20081;-63
2023/11/26 04:17:22;;;;;;;1.33;1.00;;;4.40;81.40;;;;;;5057012;28;20048;-64
2023/11/26 04:19:51;;;;;;;2.50;1.40;;;4.40;81.50;;;;;;5060216;28;20107;-64
2023/11/26 04:22:23;;;;;;;4.10;1.45;;;4.40;81.40;;;;;;5059100;28;20025;-64
2023/11/26 04:24:49;;;;;;;4.65;1.50;;;4.40;81.50;;;;;;5062096;28;20166;-64
2023/11/26 04:27:19;;;;;;;4.43;1.95;;;4.40;81.50;;;;;;5058961;28;20055;-64
2023/11/26 04:29:48;;;;;;;1.75;1.20;;;4.40;81.60;;;;;;5038960;28;20032;-64
2023/11/26 04:32:14;;;;;;;3.17;1.38;;;4.40;81.70;;;;;;5058456;28;20449;-64
2023/11/26 04:34:42;;;;;;;8.05;1.52;;;4.30;82.20;;;;;;5062095;28;20082;-63
2023/11/26 04:37:09;;;;;;;3.35;1.33;;;4.30;81.70;;;;;;5055126;28;20033;-64
2023/11/26 04:39:35;;;;;;;7.13;1.85;;;4.30;81.70;;;;;;5061782;28;20386;-64
2023/11/26 04:42:01;;;;;;;1.15;1.00;;;4.30;81.70;;;;;;5057490;28;20434;-64
2023/11/26 04:44:27;;;;;;;1.17;1.05;;;4.30;81.80;;;;;;5049476;28;20543;-64
2023/11/26 04:46:53;;;;;;;1.95;1.10;;;4.30;81.70;;;;;;5050955;28;20037;-63
2023/11/26 04:49:23;;;;;;;4.45;1.45;;;4.30;81.80;;;;;;5065787;28;20445;-64
2023/11/26 04:51:49;;;;;;;6.50;1.80;;;4.30;81.80;;;;;;5063388;28;20020;-64
2023/11/26 04:54:15;;;;;;;2.08;1.17;;;4.30;82.50;;;;;;5065237;28;20048;-64
2023/11/26 04:56:41;;;;;;;1.80;1.30;;;4.30;81.90;;;;;;5063264;28;20071;-64
2023/11/26 04:59:08;;;;;;;3.55;1.70;;;4.30;81.80;;;;;;5062838;28;20009;-64
2023/11/26 05:01:36;;;;;;;11.18;2.15;;;4.40;81.90;;;;;;5059555;28;20188;-64
2023/11/26 05:04:03;;;;;;;5.05;1.60;;;4.30;81.80;;;;;;5062392;28;20020;-64
2023/11/26 05:06:29;;;;;;;4.70;1.83;;;4.30;81.90;;;;;;5059961;28;20140;-64
2023/11/26 05:08:55;;;;;;;2.95;1.42;;;4.30;82.10;;;;;;5058859;28;20044;-64
2023/11/26 05:11:20;;;;;;;2.67;1.42;;;4.40;82.30;;;;;;5057904;28;20408;-66
2023/11/26 05:13:48;;;;;;;2.53;1.30;;;4.40;82.20;;;;;;5057972;28;20032;-66
2023/11/26 05:16:14;;;;;;;6.80;2.53;;;4.40;82.10;;;;;;5059042;28;20037;-66
2023/11/26 05:18:40;;;;;;;2.90;1.25;;;4.50;82.10;;;;;;5046485;28;20045;-66
2023/11/26 05:21:06;;;;;;;2.85;1.98;;;4.50;82.10;;;;;;5052505;28;20452;-66
2023/11/26 05:23:33;;;;;;;3.13;1.50;;;4.50;82.00;;;;;;5053056;28;20040;-66
2023/11/26 05:26:00;;;;;;;4.30;1.75;;;4.50;82.10;;;;;;5056997;28;20095;-66
2023/11/26 05:28:26;;;;;;;2.30;1.55;;;4.50;82.10;;;;;;5045730;28;20044;-64
2023/11/26 05:30:52;;;;;;;2.58;1.67;;;4.50;82.10;;;;;;5057739;28;20048;-64
2023/11/26 05:33:18;;;;;;;2.88;1.98;;;4.50;82.10;;;;;;5053232;28;20640;-64
2023/11/26 05:35:44;;;;;;;4.28;2.30;;;4.50;82.10;;;;;;5054935;28;20178;-64
2023/11/26 05:38:10;;;;;;;1.65;1.38;;;4.50;82.20;;;;;;5061352;28;20060;-63
2023/11/26 05:40:35;;;;;;;1.55;1.25;;;4.50;82.20;;;;;;5062644;28;20137;-64
2023/11/26 05:43:02;;;;;;;2.70;1.48;;;4.50;82.20;;;;;;5053629;28;20037;-66
2023/11/26 05:45:28;;;;;;;5.47;1.33;;;4.50;82.20;;;;;;5049234;28;20021;-66
2023/11/26 05:47:55;;;;;;;3.05;1.65;;;4.50;82.20;;;;;;5050588;28;20037;-66
2023/11/26 05:50:21;;;;;;;6.63;2.20;;;4.50;82.20;;;;;;5059769;28;20025;-64
2023/11/26 05:52:47;;;;;;;4.63;1.63;;;4.60;82.30;;;;;;5054115;28;20174;-64
2023/11/26 05:55:13;;;;;;;3.45;1.90;;;4.60;82.30;;;;;;5052024;28;20025;-64
2023/11/26 05:57:38;;;;;;;3.45;1.75;;;4.60;82.30;;;;;;5047758;28;20377;-64
2023/11/26 06:00:06;;;;;;;1.75;1.63;;;4.70;82.40;;;;;;5055358;28;20040;-64
2023/11/26 06:02:31;;;;;;;3.05;2.15;;;4.70;82.40;;;;;;5054585;28;20029;-66
2023/11/26 06:04:57;;;;;;;1.05;1.02;;;4.70;82.40;;;;;;5046513;28;20504;-63
2023/11/26 06:07:23;;;;;;;2.28;1.92;;;4.80;82.50;;;;;;5047390;28;20445;-64
2023/11/26 06:09:49;;;;;;;7.57;1.42;;;4.80;82.50;;;;;;5043366;28;20108;-64
2023/11/26 06:12:14;;;;;;;8.23;2.38;;;4.80;82.50;;;;;;5055889;28;20455;-64
2023/11/26 06:14:40;;;;;;;3.47;1.15;;;4.80;82.50;;;;;;5059134;28;20094;-64
2023/11/26 06:17:05;;;;;;;1.27;1.17;;;4.90;82.60;;;;;;5050534;28;20056;-63
2023/11/26 06:19:31;;;;;;;3.53;1.38;;;4.90;82.50;;;;;;5059914;28;20342;-63
2023/11/26 06:21:57;;;;;;;11.98;2.03;;;5.00;82.50;;;;;;5056809;28;20303;-64
2023/11/26 06:24:23;;;;;;;2.90;1.45;;;5.00;82.50;;;;;;5052141;28;20376;-63
2023/11/26 06:26:51;;;;;;;6.50;1.77;;;5.00;82.40;;;;;;5052046;28;20036;-64
2023/11/26 06:29:17;;;;;;;1.80;1.30;;;5.00;82.40;;;;;;5051466;28;20414;-66
2023/11/26 06:31:44;;;;;;;2.83;1.45;;;5.10;82.40;;;;;;5060483;28;20082;-66
2023/11/26 06:34:10;;;;;;;1.50;1.20;;;5.10;82.50;;;;;;5049690;28;20423;-67
2023/11/26 06:36:36;;;;;;;1.23;1.00;;;5.10;82.50;;;;;;5067154;28;20510;-66
2023/11/26 06:39:06;;;;;;;2.05;1.17;;;5.00;82.60;;;;;;5064290;28;20056;-63
2023/11/26 06:41:31;;;;;;;1.17;0.93;;;5.00;82.60;;;;;;5056464;28;20071;-63
2023/11/26 06:43:59;;;;;;;2.47;1.38;;;5.10;82.70;;;;;;5052871;28;20060;-66
2023/11/26 06:46:29;;;;;;;2.67;1.27;;;5.10;82.70;;;;;;5054404;28;20032;-64
2023/11/26 06:48:55;;;;;;;1.85;1.67;;;5.10;82.60;;;;;;5064779;28;20111;-66
2023/11/26 06:51:21;;;;;;;5.70;1.58;;;5.10;82.70;;;;;;5061384;28;20024;-63
2023/11/26 06:53:48;;;;;;;1.75;1.25;;;5.10;82.70;;;;;;5050814;28;20036;-64
2023/11/26 06:56:15;;;;;;;3.22;1.40;;;5.10;82.70;;;;;;5055324;28;20047;-63
2023/11/26 06:58:43;;;;;;;1.55;1.23;;;5.10;82.70;;;;;;5053751;28;20059;-64
2023/11/26 07:01:10;;;;;;;2.15;1.00;;;5.20;82.70;;;;;;5049930;28;20245;-64
2023/11/26 07:03:37;;;;;;;3.03;1.38;;;5.20;82.80;;;;;;5055459;28;20020;-64
2023/11/26 07:06:11;;;;;;;1.50;1.17;;;5.20;82.70;;;;;;5052264;28;20037;-64
2023/11/26 07:08:38;;;;;;;2.38;1.40;;;5.20;82.70;;;;;;5049667;28;20025;-63
2023/11/26 07:11:06;;;;;;;1.70;1.13;;;5.20;82.70;;;;;;5049500;28;20562;-64
2023/11/26 07:13:33;;;;;;;1.02;0.93;;;5.20;82.70;;;;;;5059987;28;20382;-62
2023/11/26 07:16:00;;;;;;;1.88;1.17;;;5.20;82.80;;;;;;5059622;28;20052;-62
2023/11/26 07:18:25;;;;;;;0.50;0.50;;;5.20;82.80;;;;;;5061978;28;20091;-62
2023/11/26 07:20:51;;;;;;;4.45;1.40;;;5.20;82.90;;;;;;5058281;28;20553;-63
2023/11/26 07:23:17;;;;;;;0.82;0.80;;;5.20;82.90;;;;;;5061033;28;20029;-65
2023/11/26 07:25:43;;;;;;;3.53;1.63;;;5.20;82.90;;;;;;5062172;28;20029;-65
2023/11/26 07:28:11;;;;;;;0.95;0.88;;;5.20;83.00;;;;;;5060167;28;20039;-66
2023/11/26 07:30:37;;;;;;;1.05;0.88;;;5.30;83.00;;;;;;5060334;28;20040;-66
2023/11/26 07:33:03;;;;;;;2.47;1.50;;;5.30;82.90;;;;;;5052369;28;20032;-66
2023/11/26 07:35:30;;;;;;;1.42;1.00;;;5.30;82.80;;;;;;5058500;28;20029;-66
2023/11/26 07:37:56;;;;;;;2.08;1.13;;;5.30;82.90;;;;;;5058949;28;20029;-66
2023/11/26 07:40:22;;;;;;;1.75;1.38;;;5.30;82.90;;;;;;5060211;28;20024;-66
2023/11/26 07:42:49;;;;;;;1.00;0.70;;;5.40;82.90;;;;;;5053624;28;20032;-66
2023/11/26 07:45:15;;;;;;;0.70;0.70;;;5.40;82.90;;;;;;5054226;28;20044;-66
2023/11/26 07:47:41;;;;;;;4.85;1.52;;;5.40;82.90;;;;;;5054443;28;20291;-65
2023/11/26 07:50:07;;;;;;;1.20;1.10;;;5.40;82.90;;;;;;5064427;28;20041;-66
2023/11/26 07:52:34;;;;;;;1.70;0.88;;;5.40;83.00;;;;;;5066457;28;20446;-66
2023/11/26 07:55:04;;;;;;;2.15;1.13;;;5.40;83.10;;;;;;5059523;28;20033;-62
2023/11/26 07:57:31;;;;;;;1.40;0.88;;;5.50;83.10;;;;;;5065501;28;20043;-63
2023/11/26 07:59:57;;;;;;;0.98;0.77;;;5.50;83.10;;;;;;5058048;28;20056;-62
2023/11/26 08:02:23;;;;;;;1.55;0.90;;;5.50;83.10;;;;;;5054497;28;20033;-66
2023/11/26 08:04:53;;;;;;;2.90;1.85;;;5.60;83.10;;;;;;5051657;28;20036;-66
2023/11/26 08:07:23;;;;;;;1.35;0.88;;;5.60;83.10;;;;;;5051643;28;20472;-66
2023/11/26 08:09:50;;;;;;;2.10;1.13;;;5.60;83.10;;;;;;5052034;28;20021;-63
2023/11/26 08:12:18;;;;;;;2.58;1.60;;;5.60;83.20;;;;;;5058799;28;20075;-63
2023/11/26 08:14:44;;;;;;;1.35;0.80;;;5.60;83.30;;;;;;5057104;28;20036;-66
2023/11/26 08:17:10;;;;;;;2.10;1.15;;;5.60;83.30;;;;;;5055143;28;20052;-66
2023/11/26 08:19:36;;;;;;;2.42;1.60;;;5.70;83.40;;;;;;5062480;28;20096;-66
2023/11/26 08:22:01;;;;;;;2.17;1.30;;;5.70;83.40;;;;;;5055726;28;20028;-66
2023/11/26 08:24:29;;;;;;;1.10;0.70;;;5.80;83.50;;;;;;5058404;28;20036;-63
2023/11/26 08:26:54;;;;;;;0.80;0.80;;;5.80;83.50;;;;;;5058627;28;20525;-66
2023/11/26 08:29:21;;;;;;;1.73;1.05;;;5.80;83.50;;;;;;5053225;28;20037;-66
2023/11/26 08:31:49;;;;;;;1.13;0.85;;;5.90;83.50;;;;;;5055875;28;20037;-66
2023/11/26 08:34:16;;;;;;;2.53;1.00;;;5.90;83.50;;;;;;5052793;28;20083;-66
2023/11/26 08:36:45;;;;;;;3.22;1.23;;;6.00;83.50;;;;;;5058108;28;20033;-66
2023/11/26 08:39:18;;;;;;;1.25;0.70;;;6.10;83.40;;;;;;5060065;28;20077;-63
2023/11/26 08:41:45;;;;;;;4.97;0.80;;;6.10;83.80;;;;;;5062477;28;20033;-63
2023/11/26 08:44:12;;;;;;;0.88;0.75;;;6.20;84.00;;;;;;5056642;28;20029;-62
2023/11/26 08:46:41;;;;;;;1.83;0.77;;;6.30;83.70;;;;;;5062436;28;20028;-63
2023/11/26 08:49:08;;;;;;;1.17;0.70;;;6.40;83.60;;;;;;5060229;28;20025;-63
2023/11/26 08:51:36;;;;;;;4.22;0.77;;;6.50;83.50;;;;;;5057204;28;20037;-62
2023/11/26 08:54:02;;;;;;;2.20;0.80;;;6.60;83.50;;;;;;5064320;28;20044;-65
2023/11/26 08:56:31;;;;;;;6.05;1.23;;;6.70;83.60;;;;;;5062714;28;20036;-65
2023/11/26 08:58:56;;;;;;;4.10;1.15;;;6.80;83.90;;;;;;5055722;28;20023;-63
2023/11/26 09:01:22;;;;;;;1.05;0.65;;;6.80;84.00;;;;;;5054241;28;20621;-66
2023/11/26 09:03:48;;;;;;;0.60;0.60;;;6.80;84.00;;;;;;5059002;28;20031;-66
2023/11/26 09:06:14;;;;;;;2.13;0.85;;;6.90;84.10;;;;;;5059174;28;20060;-66
2023/11/26 09:08:39;;;;;;;5.22;0.75;;;6.90;84.00;;;;;;5058877;28;20035;-66
2023/11/26 09:11:06;;;;;;;2.35;0.80;;;7.00;83.90;;;;;;5055930;28;20025;-62
2023/11/26 09:13:32;;;;;;;3.17;1.27;;;7.10;84.00;;;;;;5061594;28;20442;-63
2023/11/26 09:15:59;;;;;;;4.28;1.58;;;7.20;84.00;;;;;;5058663;28;20360;-62
2023/11/26 09:18:25;;;;;;;2.40;0.30;;;7.20;84.00;;;;;;5056822;28;20037;-63
2023/11/26 09:20:50;;;;;;;0.77;0.70;;;7.20;83.90;;;;;;5059765;28;20104;-62
2023/11/26 09:23:16;;;;;;;8.80;0.90;;;7.30;83.80;;;;;;5055687;28;20446;-62
2023/11/26 09:25:42;;;;;;;1.67;1.23;;;7.30;83.80;;;;;;5056025;28;20522;-63
2023/11/26 09:28:09;;;;;;;0.85;0.85;;;7.40;83.90;;;;;;5049733;28;20033;-62
2023/11/26 09:30:35;;;;;;;1.75;0.75;;;7.40;84.10;;;;;;5054870;28;20500;-62
2023/11/26 09:33:01;;;;;;;3.17;1.70;;;7.40;84.10;;;;;;5064625;28;20036;-63
2023/11/26 09:35:26;;;;;;;1.88;1.10;;;7.40;84.40;;;;;;5044835;28;20033;-62
2023/11/26 09:37:52;;;;;;;1.70;1.23;;;7.40;84.50;;;;;;5059447;28;20078;-63
2023/11/26 09:40:18;;;;;;;2.13;1.17;;;7.50;84.80;;;;;;5035220;28;20075;-63
2023/11/26 09:42:54;;;;;;;2.63;1.17;;;7.40;84.90;;;;;;5055054;28;20025;-63
2023/11/26 09:45:20;;;;;;;2.30;1.20;;;7.50;85.20;;;;;;5053516;28;20025;-63
2023/11/26 09:47:46;;;;;;;3.97;1.60;;;7.40;85.50;;;;;;5053523;28;20548;-63
2023/11/26 09:50:11;;;;;;;1.80;0.80;;;7.50;86.00;;;;;;5055963;28;20044;-64
2023/11/26 09:52:38;;;;;;;1.23;1.00;;;7.50;85.90;;;;;;5044609;28;20024;-63
2023/11/26 09:55:05;;;;;;;3.92;1.50;;;7.60;85.70;;;;;;5055576;28;20029;-63
2023/11/26 09:57:31;;;;;;;2.15;1.02;;;7.60;86.10;;;;;;5054106;28;20147;-63
2023/11/26 09:59:58;;;;;;;2.47;1.25;;;7.70;85.90;;;;;;5052482;28;20040;-63
2023/11/26 10:02:23;;;;;;;2.45;0.95;;;7.70;85.90;;;;;;5064294;28;20282;-64
2023/11/26 10:04:51;;;;;;;0.98;0.88;;;7.80;85.90;;;;;;5049572;28;20110;-64
2023/11/26 10:07:18;;;;;;;4.13;1.60;;;7.90;85.70;;;;;;5056579;28;20036;-64
2023/11/26 10:10:03;;;;;;;2.25;1.33;;;7.90;85.40;;;;;;5042342;28;20074;-64
2023/11/26 10:12:29;;;;;;;0.98;0.70;;;8.00;85.70;;;;;;5053403;28;20099;-63
2023/11/26 10:15:06;;;;;;;6.85;1.00;;;7.90;85.80;;;;;;5041592;28;20583;-63
2023/11/26 10:17:32;;;;;;;2.15;1.58;;;8.00;86.10;;;;;;5047136;28;20045;-63
2023/11/26 10:20:20;;;;;;;5.70;1.30;;;7.90;86.20;;;;;;5052109;28;20488;-64
2023/11/26 10:22:46;;;;;;;2.15;1.45;;;8.00;86.60;;;;;;5052832;28;20071;-64
2023/11/26 10:25:13;;;;;;;1.67;0.90;;;8.00;86.90;;;;;;5046712;28;20071;-63
2023/11/26 10:27:39;;;;;;;0.90;0.63;;;8.00;86.60;;;;;;5052959;28;20041;-64
2023/11/26 10:30:07;;;;;;;2.80;1.15;;;8.10;86.60;;;;;;5052736;28;20093;-64
2023/11/26 10:32:33;;;;;;;4.45;0.93;;;8.20;86.50;;;;;;5052333;28;20383;-64
2023/11/26 10:34:59;;;;;;;0.75;0.65;;;8.20;86.60;;;;;;5054080;28;20028;-64
2023/11/26 10:37:25;;;;;;;5.93;1.20;;;8.30;86.50;;;;;;5050098;28;20026;-64
2023/11/26 10:39:56;;;;;;;2.72;1.20;;;8.30;86.70;;;;;;5042113;28;20034;-64
2023/11/26 10:42:22;;;;;;;3.03;1.25;;;8.20;86.90;;;;;;5034782;28;20024;-64
2023/11/26 10:44:53;;;;;;;6.05;0.85;;;8.20;86.90;;;;;;5046070;28;20070;-67
2023/11/26 10:47:21;;;;;;;1.65;1.15;;;8.30;86.80;;;;;;5057411;28;20032;-67
2023/11/26 10:49:52;;;;;;;0.57;0.57;;;8.30;86.60;;;;;;5052870;28;20025;-67
2023/11/26 10:52:20;;;;;;;4.00;1.20;;;8.40;86.50;;;;;;5046031;28;20037;-64
2023/11/26 10:55:10;;;;;;;3.50;1.13;;;8.40;86.30;;;;;;5053468;28;20024;-64
2023/11/26 10:57:41;;;;;;;5.28;1.60;;;8.50;86.10;;;;;;5055036;28;20021;-67
2023/11/26 11:00:18;;;;;;;3.15;1.38;;;8.40;86.30;;;;;;5042411;28;20017;-67
2023/11/26 11:02:45;;;;;;;3.45;1.13;;;8.40;86.40;;;;;;5055202;28;20115;-67
2023/11/26 11:05:12;;;;;;;2.75;1.02;;;8.40;86.40;;;;;;5042265;28;20072;-67
2023/11/26 11:07:39;;;;;;;1.45;1.35;;;8.40;86.40;;;;;;5038861;28;20035;-67
2023/11/26 11:10:31;;;;;;;3.20;1.63;;;8.40;86.50;;;;;;5027390;28;20027;-67
2023/11/26 11:13:00;;;;;;;2.87;1.10;;;8.50;86.50;;;;;;5051415;28;20390;-67
2023/11/26 11:15:27;;;;;;;1.85;1.17;;;8.50;86.40;;;;;;5042622;28;20464;-67
2023/11/26 11:17:53;;;;;;;6.90;1.42;;;8.60;86.30;;;;;;5051836;28;20062;-65
2023/11/26 11:20:19;;;;;;;1.83;1.52;;;8.60;86.40;;;;;;5054643;28;20016;-64
2023/11/26 11:22:46;;;;;;;5.30;1.73;;;8.70;86.40;;;;;;5045033;28;20454;-65
2023/11/26 11:25:19;;;;;;;1.90;1.05;;;8.80;86.20;;;;;;5048218;28;20052;-65
2023/11/26 11:27:58;;;;;;;1.38;0.90;;;8.80;86.20;;;;;;5051517;28;20037;-65
2023/11/26 11:30:33;;;;;;;2.30;1.48;;;9.10;86.00;;;;;;5047837;28;20495;-64
2023/11/26 11:33:09;;;;;;;3.22;1.48;;;9.30;85.50;;;;;;5054357;28;20037;-65
2023/11/26 11:35:45;;;;;;;4.60;1.70;;;9.30;85.00;;;;;;5044342;28;20079;-65
2023/11/26 11:38:12;;;;;;;6.30;1.83;;;9.30;85.00;;;;;;5051708;28;20025;-65
2023/11/26 11:41:11;;;;;;;2.72;1.80;;;9.30;85.20;;;;;;5059556;28;20064;-67
2023/11/26 11:43:37;;;;;;;1.92;1.35;;;9.30;85.30;;;;;;5053422;28;20400;-67
2023/11/26 11:46:28;;;;;;;3.20;1.65;;;9.30;85.30;;;;;;5058248;28;20433;-67
2023/11/26 11:48:55;;;;;;;4.95;1.45;;;9.40;85.00;;;;;;5061749;28;20098;-67
2023/11/26 11:51:34;;;;;;;4.60;1.25;;;9.40;85.10;;;;;;5070120;28;20165;-67
2023/11/26 11:54:11;;;;;;;4.85;1.50;;;9.40;85.20;;;;;;5051328;28;20395;-67
2023/11/26 11:56:46;;;;;;;1.48;0.98;;;9.40;85.20;;;;;;5046709;28;20033;-67
2023/11/26 11:59:12;;;;;;;3.22;2.08;;;9.40;85.30;;;;;;5035837;28;20052;-67
2023/11/26 12:01:39;;;;;;;5.60;1.58;;;9.40;85.30;;;;;;5059004;28;20415;-65
2023/11/26 12:04:05;;;;;;;2.50;1.20;;;9.30;85.50;;;;;;5058070;28;20053;-65
2023/11/26 12:06:32;;;;;;;1.45;0.95;;;9.40;85.50;;;;;;5046478;28;20510;-65
2023/11/26 12:09:05;;;;;;;3.88;0.90;;;9.40;85.40;;;;;;5059355;28;20028;-67
2023/11/26 12:11:31;;;;;;;3.55;0.90;;;9.40;85.20;;;;;;5059975;28;20061;-67
2023/11/26 12:13:57;;;;;;;1.27;1.10;;;9.40;85.20;;;;;;5044403;28;20022;-67
2023/11/26 12:16:23;;;;;;;2.60;1.05;;;9.40;85.40;;;;;;5042230;28;20032;-64
2023/11/26 12:18:55;;;;;;;4.80;1.00;;;9.40;85.50;;;;;;5062502;28;20045;-65
2023/11/26 12:21:24;;;;;;;3.00;1.35;;;9.40;85.60;;;;;;5055799;28;20025;-65
2023/11/26 12:23:50;;;;;;;3.42;1.63;;;9.40;85.70;;;;;;5051842;28;20031;-65
2023/11/26 12:26:16;;;;;;;3.50;1.58;;;9.30;85.60;;;;;;5056069;28;20036;-65
2023/11/26 12:28:48;;;;;;;2.25;1.38;;;9.30;85.80;;;;;;5060446;28;20032;-65
2023/11/26 12:31:15;;;;;;;2.13;1.20;;;9.30;85.90;;;;;;5057122;28;20043;-65
2023/11/26 12:33:43;;;;;;;1.33;0.93;;;9.30;86.00;;;;;;5050545;28;20024;-67
2023/11/26 12:36:13;;;;;;;3.00;1.60;;;9.30;86.10;;;;;;5054359;28;20065;-67
2023/11/26 12:38:40;;;;;;;2.65;1.45;;;9.30;86.10;;;;;;5042983;28;20028;-67
2023/11/26 12:41:10;;;;;;;6.13;1.75;;;9.20;86.10;;;;;;5058224;28;20028;-67
2023/11/26 12:43:37;;;;;;;2.90;1.25;;;9.20;86.10;;;;;;5044401;28;20058;-64
2023/11/26 12:46:14;;;;;;;2.25;1.50;;;9.20;86.20;;;;;;5049647;28;20519;-64
2023/11/26 12:48:41;;;;;;;3.80;1.17;;;9.20;86.20;;;;;;5059161;28;20028;-65
2023/11/26 12:51:07;;;;;;;1.77;0.70;;;9.10;86.30;;;;;;5039030;28;20546;-64
2023/11/26 12:53:33;;;;;;;1.77;1.25;;;9.20;86.30;;;;;;5054904;28;20071;-67
2023/11/26 12:55:59;;;;;;;4.10;1.27;;;9.10;86.20;;;;;;5055755;28;20033;-67
2023/11/26 12:58:28;;;;;;;6.53;1.90;;;9.10;86.10;;;;;;5053845;28;20388;-67
2023/11/26 13:00:56;;;;;;;1.50;1.08;;;9.10;86.20;;;;;;5049181;28;20076;-67
2023/11/26 13:03:22;;;;;;;3.85;1.02;;;9.00;86.30;;;;;;5061306;28;20033;-64